Time;durP1;ratioP1;P1;durP2;ratioP2;P2;SDS_P1;SDS_P2;PMS_P1;PMS_P2;Temp;Humidity;BMP_temperature;BMP_pressure;BME280_temperature;BME280_humidity;BME280_pressure;Samples;Min_cycle;Max_cycle;Signal;HPM_P1;HPM_P2
2022/04/14 02:53:59;;;;;;;2.88;1.95;;;17.10;61.70;;;;;;5051491;28;20401;-70
2022/04/14 02:56:25;;;;;;;3.63;1.77;;;16.30;61.00;;;;;;5051173;28;20049;-70
2022/04/14 02:58:52;;;;;;;2.58;1.88;;;16.60;61.50;;;;;;5031920;28;20051;-70
2022/04/14 03:01:19;;;;;;;2.50;1.90;;;17.40;61.60;;;;;;5030793;28;20494;-70
2022/04/14 03:03:45;;;;;;;2.50;1.90;;;16.50;61.30;;;;;;5048629;28;20052;-70
2022/04/14 03:06:12;;;;;;;2.85;1.98;;;15.90;61.00;;;;;;5051030;28;20057;-70
2022/04/14 03:08:39;;;;;;;3.10;2.20;;;16.80;61.40;;;;;;5033870;28;20057;-70
2022/04/14 03:11:07;;;;;;;3.22;1.85;;;16.00;60.90;;;;;;5031085;28;20410;-70
2022/04/14 03:13:34;;;;;;;2.53;1.80;;;16.70;61.20;;;;;;5030684;28;20064;-70
2022/04/14 03:16:01;;;;;;;3.08;2.15;;;16.40;61.40;;;;;;5030972;28;20140;-70
2022/04/14 03:18:27;;;;;;;3.25;2.00;;;16.50;61.20;;;;;;5046115;28;20490;-71
2022/04/14 03:20:54;;;;;;;3.10;1.95;;;17.40;62.00;;;;;;5050374;28;20063;-70
2022/04/14 03:23:21;;;;;;;2.50;1.80;;;16.00;61.10;;;;;;5050407;28;20053;-70
2022/04/14 03:25:48;;;;;;;2.67;1.98;;;15.80;60.90;;;;;;5052148;28;20045;-71
2022/04/14 03:28:16;;;;;;;2.72;1.80;;;17.30;61.80;;;;;;5038467;28;20063;-70
2022/04/14 03:30:43;;;;;;;2.75;2.00;;;16.20;61.00;;;;;;5030722;28;20067;-70
2022/04/14 03:33:09;;;;;;;2.85;2.20;;;16.50;61.10;;;;;;5030550;28;20136;-70
2022/04/14 03:35:36;;;;;;;2.88;2.00;;;16.50;61.40;;;;;;5030738;28;20057;-70
2022/04/14 03:38:03;;;;;;;2.67;2.10;;;16.50;61.30;;;;;;5041789;28;20057;-70
2022/04/14 03:40:29;;;;;;;3.00;2.10;;;15.90;60.80;;;;;;5050170;28;20056;-70
2022/04/14 03:42:56;;;;;;;2.42;1.98;;;16.60;55.50;;;;;;5050413;28;20413;-70
2022/04/14 03:45:24;;;;;;;3.08;2.00;;;15.70;61.00;;;;;;5050531;28;20067;-70
2022/04/14 03:47:51;;;;;;;2.47;1.95;;;16.00;60.90;;;;;;5041880;28;20410;-70
2022/04/14 03:50:17;;;;;;;2.85;1.98;;;16.50;61.30;;;;;;5030194;28;20064;-70
2022/04/14 03:52:44;;;;;;;3.17;2.20;;;16.80;61.30;;;;;;5030438;28;20053;-71
2022/04/14 03:55:11;;;;;;;2.30;2.00;;;16.60;61.20;;;;;;5030667;28;20062;-70
2022/04/14 03:57:38;;;;;;;2.80;2.10;;;16.80;61.40;;;;;;5039100;28;20037;-70
2022/04/14 04:00:06;;;;;;;2.90;1.90;;;17.10;61.50;;;;;;5050072;28;20148;-70
2022/04/14 04:02:35;;;;;;;2.90;2.00;;;15.80;61.00;;;;;;5050504;28;20057;-70
2022/04/14 04:05:02;;;;;;;3.22;2.50;;;17.10;61.90;;;;;;5051957;28;20041;-70
2022/04/14 04:07:29;;;;;;;2.95;2.40;;;;;;;;;;5048045;28;20053;-70
2022/04/14 04:09:55;;;;;;;2.25;1.95;;;16.50;61.30;;;;;;5035365;28;20042;-70
2022/04/14 04:12:22;;;;;;;2.72;2.10;;;15.80;60.80;;;;;;5034592;28;20470;-70
2022/04/14 04:14:49;;;;;;;3.17;1.80;;;16.30;61.30;;;;;;5035390;28;20045;-70
2022/04/14 04:17:16;;;;;;;2.70;2.00;;;16.40;61.10;;;;;;5037837;28;20055;-70
2022/04/14 04:19:44;;;;;;;3.60;2.30;;;16.30;61.20;;;;;;5053694;28;20053;-70
2022/04/14 04:22:11;;;;;;;2.75;2.10;;;17.10;61.70;;;;;;5055095;28;20569;-70
2022/04/14 04:24:38;;;;;;;2.80;2.03;;;16.30;61.20;;;;;;5053859;28;20056;-71
2022/04/14 04:27:05;;;;;;;3.75;2.40;;;16.50;61.50;;;;;;5051889;28;20060;-70
2022/04/14 04:29:32;;;;;;;2.75;2.05;;;16.40;61.30;;;;;;5033333;28;20058;-70
2022/04/14 04:31:58;;;;;;;3.03;2.17;;;16.20;61.40;;;;;;5034103;28;20057;-70
2022/04/14 04:34:25;;;;;;;3.20;2.20;;;16.40;61.40;;;;;;5034994;28;20060;-72
2022/04/14 04:36:53;;;;;;;2.83;2.10;;;16.30;61.60;;;;;;5035103;28;20049;-71
2022/04/14 04:39:20;;;;;;;2.58;2.10;;;16.40;61.30;;;;;;5033831;28;20059;-71
2022/04/14 04:41:46;;;;;;;3.65;2.40;;;15.90;61.10;;;;;;5033765;28;20544;-71
2022/04/14 04:44:13;;;;;;;2.85;2.20;;;16.30;61.20;;;;;;5033324;28;20091;-71
2022/04/14 04:46:40;;;;;;;3.15;2.22;;;15.90;61.40;;;;;;5033938;28;20059;-71
2022/04/14 04:49:07;;;;;;;3.25;2.45;;;16.10;61.30;;;;;;5052095;28;20503;-71
2022/04/14 04:51:34;;;;;;;3.17;2.28;;;16.20;61.30;;;;;;5036858;28;20452;-71
2022/04/14 04:54:02;;;;;;;3.58;2.50;;;16.30;61.30;;;;;;5053483;28;20041;-71
2022/04/14 04:56:28;;;;;;;3.20;2.28;;;15.70;61.00;;;;;;5053236;28;20055;-71
2022/04/14 04:58:55;;;;;;;2.58;2.17;;;16.30;61.60;;;;;;5036702;28;20057;-71
2022/04/14 05:01:22;;;;;;;5.78;2.78;;;16.40;61.60;;;;;;5033230;28;20075;-70
2022/04/14 05:03:49;;;;;;;2.72;2.30;;;16.00;61.00;;;;;;5033480;28;20056;-71
2022/04/14 05:06:16;;;;;;;4.35;2.80;;;17.10;61.70;;;;;;5033133;28;20057;-71
2022/04/14 05:08:43;;;;;;;3.40;2.42;;;16.30;61.60;;;;;;5047646;28;20493;-72
2022/04/14 05:11:11;;;;;;;2.42;2.08;;;15.70;61.30;;;;;;5053030;28;20063;-71
2022/04/14 05:13:38;;;;;;;4.10;2.38;;;15.50;61.40;;;;;;5053246;28;20048;-71
2022/04/14 05:16:06;;;;;;;3.28;2.10;;;15.60;61.00;;;;;;5053066;28;20063;-71
2022/04/14 05:18:33;;;;;;;2.38;2.13;;;15.80;61.20;;;;;;5039007;28;20406;-71
2022/04/14 05:21:00;;;;;;;2.50;2.20;;;16.30;61.40;;;;;;5033013;28;20064;-71
2022/04/14 05:23:26;;;;;;;3.38;2.25;;;15.90;61.50;;;;;;5033062;28;20486;-71
2022/04/14 05:25:54;;;;;;;3.58;2.25;;;16.10;61.20;;;;;;5033153;28;20057;-71
2022/04/14 05:28:23;;;;;;;3.13;2.15;;;16.20;58.70;;;;;;5043541;28;20240;-71
2022/04/14 05:30:50;;;;;;;3.05;2.20;;;15.60;60.90;;;;;;5052842;28;20048;-71
2022/04/14 05:33:16;;;;;;;2.78;2.22;;;16.30;61.60;;;;;;5053832;28;20505;-71
2022/04/14 05:35:45;;;;;;;3.10;2.20;;;16.20;58.50;;;;;;5052564;28;20053;-71
2022/04/14 05:38:13;;;;;;;3.00;2.10;;;16.20;61.30;;;;;;5042597;28;20050;-71
2022/04/14 05:40:41;;;;;;;3.53;2.30;;;16.20;61.30;;;;;;5032406;28;20057;-71
2022/04/14 05:43:09;;;;;;;3.58;2.30;;;16.30;61.50;;;;;;5032661;28;20079;-71
2022/04/14 05:45:37;;;;;;;3.65;2.30;;;16.40;61.60;;;;;;5037727;28;20071;-71
2022/04/14 05:48:05;;;;;;;2.70;2.22;;;16.20;61.20;;;;;;5048909;28;20081;-71
2022/04/14 05:50:32;;;;;;;3.67;2.38;;;16.40;58.60;;;;;;5051976;28;20052;-71
2022/04/14 05:52:59;;;;;;;3.15;2.30;;;15.60;60.80;;;;;;5052447;28;20056;-71
2022/04/14 05:55:25;;;;;;;3.03;2.00;;;17.10;61.60;;;;;;5053448;28;20532;-70
2022/04/14 05:57:52;;;;;;;3.47;2.40;;;16.30;61.30;;;;;;5046543;28;20051;-70
2022/04/14 06:00:19;;;;;;;3.55;2.40;;;16.40;61.50;;;;;;5040194;28;20053;-71
2022/04/14 06:02:47;;;;;;;2.85;2.30;;;16.20;61.50;;;;;;5033462;28;20049;-71
2022/04/14 06:05:14;;;;;;;3.65;2.60;;;16.40;61.50;;;;;;5031982;28;20045;-70
2022/04/14 06:07:41;;;;;;;4.43;2.40;;;16.30;61.50;;;;;;5036820;28;20387;-71
2022/04/14 06:10:08;;;;;;;2.80;2.20;;;17.00;61.50;;;;;;5051478;28;20049;-71
2022/04/14 06:12:34;;;;;;;3.92;2.78;;;16.40;61.10;;;;;;5051790;28;20059;-71
2022/04/14 06:15:01;;;;;;;4.50;2.42;;;15.40;60.70;;;;;;5052272;28;20064;-71
2022/04/14 06:17:28;;;;;;;2.85;2.33;;;16.30;61.50;;;;;;5052098;28;20407;-70
2022/04/14 06:19:56;;;;;;;3.55;2.60;;;15.90;60.90;;;;;;5053115;28;20049;-71
2022/04/14 06:22:23;;;;;;;3.85;2.42;;;16.30;61.10;;;;;;5052140;28;20560;-71
2022/04/14 06:24:50;;;;;;;3.55;2.15;;;15.90;60.60;;;;;;5051905;28;20053;-71
2022/04/14 06:27:17;;;;;;;4.40;2.90;;;16.50;61.20;;;;;;5051405;28;20044;-71
2022/04/14 06:29:43;;;;;;;3.20;2.38;;;16.40;61.20;;;;;;5031735;28;20055;-71
2022/04/14 06:32:10;;;;;;;3.95;2.38;;;16.70;61.20;;;;;;5037871;28;20552;-71
2022/04/14 06:34:37;;;;;;;2.90;2.22;;;15.80;60.80;;;;;;5051344;28;20057;-69
2022/04/14 06:37:05;;;;;;;3.10;2.35;;;16.70;61.00;;;;;;5051695;28;20060;-69
2022/04/14 06:39:32;;;;;;;3.15;2.42;;;16.50;60.60;;;;;;5051830;28;20052;-69
2022/04/14 06:41:59;;;;;;;3.85;2.30;;;16.80;58.80;;;;;;5051510;28;20055;-69
2022/04/14 06:44:26;;;;;;;3.20;2.42;;;17.20;61.40;;;;;;5051294;28;20440;-69
2022/04/14 06:46:53;;;;;;;2.75;2.35;;;17.40;61.30;;;;;;5041387;28;20055;-70
2022/04/14 06:49:19;;;;;;;3.10;2.13;;;16.00;60.50;;;;;;5032352;28;20140;-69
2022/04/14 06:51:46;;;;;;;3.42;2.13;;;17.00;60.60;;;;;;5031930;28;20452;-69
2022/04/14 06:54:15;;;;;;;5.72;2.63;;;17.10;60.80;;;;;;5031087;28;20069;-70
2022/04/14 06:56:42;;;;;;;3.67;2.55;;;17.10;60.80;;;;;;5031566;28;20058;-68
2022/04/14 06:59:08;;;;;;;4.70;2.70;;;17.30;62.00;;;;;;5033207;28;20053;-69
2022/04/14 07:01:35;;;;;;;3.78;2.78;;;18.00;60.70;;;;;;5031164;28;20053;-70
2022/04/14 07:04:02;;;;;;;3.50;2.88;;;17.30;60.90;;;;;;5031455;28;20049;-69
2022/04/14 07:06:28;;;;;;;5.70;2.90;;;17.60;59.90;;;;;;5032426;28;20483;-70
2022/04/14 07:08:56;;;;;;;3.83;2.67;;;17.70;54.60;;;;;;5044205;28;20142;-70
2022/04/14 07:11:24;;;;;;;3.95;2.50;;;17.90;61.00;;;;;;5050939;28;20092;-71
2022/04/14 07:13:51;;;;;;;4.13;2.40;;;18.10;59.50;;;;;;5051188;28;20140;-71
2022/04/14 07:16:18;;;;;;;3.58;2.30;;;18.00;61.50;;;;;;5050985;28;20777;-71
2022/04/14 07:18:44;;;;;;;4.30;2.58;;;18.30;59.20;;;;;;5040408;28;20045;-71
2022/04/14 07:21:11;;;;;;;4.88;2.65;;;18.10;53.90;;;;;;5041518;28;20059;-71
2022/04/14 07:23:38;;;;;;;4.35;2.30;;;18.40;59.10;;;;;;5039959;28;20053;-71
2022/04/14 07:26:05;;;;;;;4.38;2.22;;;18.00;59.90;;;;;;5039920;28;20077;-71
2022/04/14 07:28:33;;;;;;;3.25;2.28;;;18.60;59.60;;;;;;5042719;28;20709;-72
2022/04/14 07:31:01;;;;;;;3.70;2.25;;;18.50;58.90;;;;;;5039626;28;20060;-71
2022/04/14 07:33:28;;;;;;;6.10;2.38;;;18.50;58.90;;;;;;5040445;28;20115;-71
2022/04/14 07:35:55;;;;;;;2.53;1.98;;;18.80;58.90;;;;;;5042221;28;20056;-71
2022/04/14 07:38:21;;;;;;;2.65;2.00;;;18.50;60.20;;;;;;5041876;28;20051;-71
2022/04/14 07:40:48;;;;;;;3.30;1.85;;;18.30;58.30;;;;;;5041048;28;20051;-70
2022/04/14 07:43:15;;;;;;;3.35;1.92;;;18.50;58.70;;;;;;5041315;28;20497;-72
2022/04/14 07:45:45;;;;;;;4.55;2.03;;;18.50;53.40;;;;;;5039740;28;20077;-71
2022/04/14 07:48:12;;;;;;;2.90;2.00;;;18.60;53.40;;;;;;5040324;28;20124;-69
2022/04/14 07:50:39;;;;;;;2.83;1.80;;;18.60;59.20;;;;;;5040815;28;20053;-70
2022/04/14 07:53:07;;;;;;;3.17;2.00;;;18.50;59.80;;;;;;5038786;28;20057;-69
2022/04/14 07:55:34;;;;;;;3.28;1.70;;;18.40;59.30;;;;;;5048379;28;20064;-70
2022/04/14 07:58:04;;;;;;;2.78;1.80;;;18.40;58.00;;;;;;5043891;28;20073;-70
2022/04/14 08:00:31;;;;;;;2.17;1.70;;;18.50;53.40;;;;;;5039743;28;20048;-70
2022/04/14 08:03:00;;;;;;;3.50;2.40;;;18.80;58.60;;;;;;5035857;28;20057;-69
2022/04/14 08:05:28;;;;;;;2.95;1.80;;;18.60;53.40;;;;;;5040621;28;20515;-70
2022/04/14 08:07:55;;;;;;;3.05;1.75;;;18.60;58.80;;;;;;5038798;28;20053;-69
2022/04/14 08:10:22;;;;;;;5.25;2.10;;;18.50;58.80;;;;;;5041707;28;20048;-69
2022/04/14 08:12:49;;;;;;;2.40;2.10;;;18.10;58.40;;;;;;5050746;28;20048;-69
2022/04/14 08:15:15;;;;;;;6.45;2.40;;;18.70;58.80;;;;;;5041103;28;20053;-71
2022/04/14 08:17:42;;;;;;;8.02;2.38;;;18.10;58.10;;;;;;5041206;28;20057;-71
2022/04/14 08:20:12;;;;;;;3.90;2.10;;;18.60;53.40;;;;;;5040583;28;20140;-71
2022/04/14 08:22:50;;;;;;;3.85;1.90;;;18.40;58.20;;;;;;5036054;28;20037;-71
2022/04/14 08:25:17;;;;;;;4.13;1.95;;;18.70;58.50;;;;;;5039908;28;20049;-71
2022/04/14 08:27:44;;;;;;;3.97;2.45;;;17.90;57.80;;;;;;5044455;28;20049;-71
2022/04/14 08:30:12;;;;;;;3.30;1.95;;;18.20;59.60;;;;;;5047253;28;20114;-71
2022/04/14 08:32:39;;;;;;;2.58;1.90;;;18.60;59.00;;;;;;5041900;28;20055;-71
2022/04/14 08:35:06;;;;;;;3.38;2.03;;;18.60;58.40;;;;;;5033118;28;20045;-71
2022/04/14 08:37:34;;;;;;;3.92;2.13;;;18.60;60.10;;;;;;5030751;28;20050;-71
2022/04/14 08:40:01;;;;;;;4.55;2.15;;;19.70;60.60;;;;;;5031117;28;20491;-71
2022/04/14 08:42:33;;;;;;;2.80;2.00;;;19.00;58.10;;;;;;5030443;28;20083;-70
2022/04/14 08:45:02;;;;;;;2.88;2.20;;;18.60;58.20;;;;;;5031311;28;20053;-71
2022/04/14 08:47:29;;;;;;;2.78;2.10;;;18.00;58.50;;;;;;5035650;28;20458;-71
2022/04/14 08:49:55;;;;;;;3.08;1.98;;;19.50;58.40;;;;;;5040997;28;20049;-71
2022/04/14 08:52:22;;;;;;;2.58;1.83;;;19.00;58.20;;;;;;5048964;28;20075;-71
2022/04/14 08:54:51;;;;;;;2.33;1.85;;;18.70;58.30;;;;;;5044843;28;20132;-70
2022/04/14 08:57:18;;;;;;;3.80;1.90;;;18.40;59.70;;;;;;5043276;28;20053;-70
2022/04/14 08:59:45;;;;;;;2.63;1.92;;;18.70;58.00;;;;;;5045320;28;20144;-70
2022/04/14 09:02:13;;;;;;;2.50;1.75;;;18.10;59.40;;;;;;5042673;28;20061;-70
2022/04/14 09:04:41;;;;;;;3.30;1.98;;;19.50;58.50;;;;;;5043896;28;20064;-70
2022/04/14 09:07:07;;;;;;;2.97;2.00;;;18.60;58.80;;;;;;5047227;28;20057;-70
2022/04/14 09:09:34;;;;;;;1.65;1.40;;;18.80;57.90;;;;;;5048016;28;20049;-70
2022/04/14 09:12:02;;;;;;;1.92;1.50;;;19.00;58.40;;;;;;5039778;28;20413;-70
2022/04/14 09:14:31;;;;;;;4.40;1.80;;;19.20;58.40;;;;;;5033425;28;20490;-70
2022/04/14 09:16:58;;;;;;;1.80;1.48;;;18.80;59.00;;;;;;5036599;28;20124;-70
2022/04/14 09:19:25;;;;;;;2.35;1.40;;;18.30;57.80;;;;;;5042827;28;20057;-70
2022/04/14 09:21:58;;;;;;;2.47;1.38;;;18.90;53.10;;;;;;5045432;28;20485;-70
2022/04/14 09:24:39;;;;;;;3.45;1.65;;;18.90;53.10;;;;;;5033094;28;20053;-69
2022/04/14 09:27:07;;;;;;;2.90;1.63;;;18.90;53.10;;;;;;5048858;28;20136;-68
2022/04/14 09:29:34;;;;;;;3.03;1.77;;;19.00;58.60;;;;;;5041462;28;20490;-69
2022/04/14 09:32:01;;;;;;;2.00;1.42;;;19.00;58.20;;;;;;5053184;28;20051;-70
2022/04/14 09:34:48;;;;;;;2.55;1.52;;;18.90;57.90;;;;;;5051484;28;20405;-70
2022/04/14 09:37:15;;;;;;;2.83;1.60;;;19.00;53.10;;;;;;5050692;28;20086;-70
2022/04/14 09:39:55;;;;;;;2.47;1.50;;;19.20;53.20;;;;;;5053178;28;20055;-70
2022/04/14 09:42:23;;;;;;;2.40;1.80;;;19.00;54.30;;;;;;5051873;28;20049;-70
2022/04/14 09:44:50;;;;;;;4.32;1.75;;;19.70;58.40;;;;;;5052955;28;20047;-70
2022/04/14 09:47:40;;;;;;;3.75;1.70;;;18.90;53.00;;;;;;5034378;28;20085;-69
2022/04/14 09:50:08;;;;;;;3.03;1.42;;;18.80;58.10;;;;;;5032564;28;20053;-69
2022/04/14 09:52:51;;;;;;;4.22;1.83;;;18.70;57.90;;;;;;5033585;28;20052;-69
2022/04/14 09:55:17;;;;;;;6.63;1.98;;;18.90;53.10;;;;;;5032936;28;20068;-70
2022/04/14 09:57:48;;;;;;;4.30;2.15;;;18.80;57.90;;;;;;5053279;28;20044;-69
2022/04/14 10:00:15;;;;;;;7.07;1.90;;;18.80;57.80;;;;;;5052433;28;20504;-69
2022/04/14 10:02:41;;;;;;;3.97;1.73;;;18.90;53.10;;;;;;5050714;28;20071;-69
2022/04/14 10:05:09;;;;;;;7.05;1.90;;;18.90;53.00;;;;;;5052295;28;20055;-69
2022/04/14 10:07:35;;;;;;;5.25;2.30;;;19.10;57.70;;;;;;5051172;28;20635;-68
2022/04/14 10:10:03;;;;;;;10.15;3.53;;;19.00;53.10;;;;;;5046062;28;20085;-69
2022/04/14 10:12:30;;;;;;;7.82;3.17;;;19.10;57.80;;;;;;5042280;28;20052;-68
2022/04/14 10:15:17;;;;;;;7.65;2.88;;;18.80;58.30;;;;;;5043673;28;20053;-69
2022/04/14 10:17:44;;;;;;;8.48;3.38;;;19.00;60.10;;;;;;5043538;28;20067;-69
2022/04/14 10:20:12;;;;;;;20.67;5.38;;;18.90;53.30;;;;;;5045194;28;20061;-69
2022/04/14 10:22:39;;;;;;;18.50;6.18;;;18.80;58.70;;;;;;5052817;28;20056;-69
2022/04/14 10:25:07;;;;;;;19.98;6.30;;;18.90;53.60;;;;;;5052031;28;20456;-70
2022/04/14 10:27:34;;;;;;;21.95;5.70;;;19.30;59.40;;;;;;5051705;28;20060;-68
2022/04/14 10:30:01;;;;;;;12.45;4.90;;;;;;;;;;5051377;28;20049;-69
2022/04/14 10:32:29;;;;;;;16.00;5.55;;;18.40;57.80;;;;;;5051896;28;20056;-68
2022/04/14 10:34:56;;;;;;;11.40;4.90;;;18.90;59.40;;;;;;5044166;28;20402;-68
2022/04/14 10:37:24;;;;;;;15.75;4.05;;;19.10;53.00;;;;;;5040366;28;20056;-69
2022/04/14 10:39:50;;;;;;;10.70;4.57;;;19.10;58.40;;;;;;5051592;28;20052;-68
2022/04/14 10:42:19;;;;;;;11.75;4.70;;;19.00;58.00;;;;;;5036306;28;20429;-68
2022/04/14 10:44:46;;;;;;;12.80;3.80;;;18.50;58.00;;;;;;5032643;28;20054;-68
2022/04/14 10:47:13;;;;;;;10.65;3.80;;;19.10;58.20;;;;;;5015407;28;20069;-68
2022/04/14 10:49:42;;;;;;;11.27;3.60;;;18.80;58.60;;;;;;5031266;28;20049;-69
2022/04/14 10:52:23;;;;;;;13.82;4.85;;;19.20;59.90;;;;;;5032713;28;20055;-69
2022/04/14 10:54:57;;;;;;;10.35;3.97;;;18.70;58.60;;;;;;5031880;28;20052;-69
2022/04/14 10:57:36;;;;;;;9.55;3.63;;;18.90;53.40;;;;;;5048425;28;20045;-69
2022/04/14 11:00:03;;;;;;;9.27;3.28;;;18.90;58.70;;;;;;5050032;28;20049;-69
2022/04/14 11:03:03;;;;;;;8.65;3.80;;;19.60;58.40;;;;;;5031640;28;20413;-69
2022/04/14 11:05:45;;;;;;;9.73;3.30;;;18.90;53.30;;;;;;5032297;28;20069;-69
2022/04/14 11:08:25;;;;;;;7.47;3.70;;;18.80;58.50;;;;;;5040426;28;20095;-69
2022/04/14 11:10:56;;;;;;;6.18;2.78;;;19.70;58.40;;;;;;5030888;28;20053;-70
2022/04/14 11:13:23;;;;;;;7.82;3.25;;;19.00;58.70;;;;;;5036287;28;20049;-69
2022/04/14 11:15:50;;;;;;;6.20;2.75;;;19.00;56.00;;;;;;5037623;28;20060;-69
2022/04/14 11:18:17;;;;;;;6.13;2.88;;;19.20;59.60;;;;;;5049451;28;20080;-69
2022/04/14 11:21:03;;;;;;;8.77;2.97;;;19.30;58.20;;;;;;5046826;28;20128;-70
2022/04/14 11:23:30;;;;;;;5.70;2.90;;;19.20;53.20;;;;;;5038932;28;20201;-70
2022/04/14 11:26:07;;;;;;;4.95;2.72;;;19.20;53.20;;;;;;5034326;28;20056;-68
2022/04/14 11:28:35;;;;;;;7.00;2.90;;;19.20;53.10;;;;;;5030748;28;20053;-69
2022/04/14 11:31:02;;;;;;;6.78;2.83;;;19.10;57.70;;;;;;5047197;28;20064;-69
2022/04/14 11:33:37;;;;;;;9.00;2.83;;;19.30;59.30;;;;;;5038622;28;20052;-68
2022/04/14 11:36:12;;;;;;;4.85;2.80;;;19.30;58.60;;;;;;5038010;28;20068;-69
2022/04/14 11:38:55;;;;;;;9.57;2.75;;;19.30;53.20;;;;;;5043493;28;20099;-68
2022/04/14 11:41:30;;;;;;;5.78;2.58;;;19.20;57.90;;;;;;5043321;28;20060;-69
2022/04/14 11:43:56;;;;;;;4.67;2.30;;;19.40;58.20;;;;;;5041921;28;20055;-69
2022/04/14 11:46:23;;;;;;;5.07;2.17;;;19.10;58.10;;;;;;5042063;28;20045;-68
2022/04/14 11:48:50;;;;;;;4.25;2.10;;;18.40;57.50;;;;;;5043163;28;20069;-68
2022/04/14 11:51:19;;;;;;;8.88;3.03;;;19.30;58.00;;;;;;5039018;28;20042;-68
2022/04/14 11:53:46;;;;;;;4.25;2.45;;;19.20;58.10;;;;;;5040671;28;20055;-68
2022/04/14 11:56:16;;;;;;;4.95;2.35;;;19.20;53.30;;;;;;5040741;28;20046;-68
2022/04/14 11:58:42;;;;;;;4.40;2.17;;;19.30;53.40;;;;;;5044757;28;20052;-68
2022/04/14 12:01:09;;;;;;;5.22;2.33;;;19.30;57.80;;;;;;5050308;28;20052;-68
2022/04/14 12:03:36;;;;;;;5.60;2.08;;;19.30;57.90;;;;;;5051756;28;20401;-69
2022/04/14 12:06:04;;;;;;;5.15;2.13;;;19.20;53.40;;;;;;5051505;28;20482;-69
2022/04/14 12:08:32;;;;;;;4.55;2.30;;;18.60;57.60;;;;;;5047859;28;20053;-69
2022/04/14 12:11:02;;;;;;;5.10;2.20;;;19.50;58.10;;;;;;5033713;28;20132;-68
2022/04/14 12:13:29;;;;;;;5.53;2.10;;;19.20;57.70;;;;;;5028659;28;20063;-68
2022/04/14 12:16:02;;;;;;;3.00;2.03;;;19.00;58.10;;;;;;5032918;28;20037;-68
2022/04/14 12:18:29;;;;;;;4.28;2.30;;;19.00;57.50;;;;;;5042793;28;20049;-70
2022/04/14 12:20:56;;;;;;;3.90;2.05;;;19.20;58.00;;;;;;5044477;28;20136;-69
2022/04/14 12:23:23;;;;;;;3.63;2.03;;;18.30;57.50;;;;;;5040680;28;20049;-69
2022/04/14 12:25:52;;;;;;;5.20;2.45;;;19.10;58.30;;;;;;5030615;28;20406;-68
2022/04/14 12:28:19;;;;;;;5.32;2.10;;;19.20;58.30;;;;;;5035758;28;20123;-68
2022/04/14 12:30:46;;;;;;;2.78;1.60;;;19.30;58.10;;;;;;5033888;28;20045;-68
2022/04/14 12:33:12;;;;;;;5.28;2.60;;;20.00;58.70;;;;;;5034214;28;20056;-68
2022/04/14 12:35:40;;;;;;;7.47;2.40;;;19.50;58.40;;;;;;5034063;28;20054;-68
2022/04/14 12:38:13;;;;;;;23.05;7.07;;;19.50;58.50;;;;;;5040159;28;20053;-68
2022/04/14 12:40:54;;;;;;;19.52;6.55;;;19.20;58.90;;;;;;5052268;28;20057;-68
2022/04/14 12:43:22;;;;;;;27.65;7.55;;;18.70;58.10;;;;;;5054211;28;20498;-69
2022/04/14 12:45:49;;;;;;;33.58;9.85;;;19.60;58.60;;;;;;5053334;28;20063;-68
2022/04/14 12:48:26;;;;;;;95.00;23.48;;;19.40;58.20;;;;;;5046108;28;20049;-69
2022/04/14 12:50:56;;;;;;;126.15;33.38;;;19.20;58.30;;;;;;5034181;28;20049;-69
2022/04/14 12:53:24;;;;;;;97.15;26.08;;;19.40;58.80;;;;;;5033767;28;20063;-69
2022/04/14 12:55:51;;;;;;;81.47;22.23;;;19.00;58.50;;;;;;5034936;28;20053;-69
2022/04/14 12:58:19;;;;;;;79.57;20.20;;;19.30;58.50;;;;;;5046811;28;20057;-69
2022/04/14 13:00:46;;;;;;;65.03;18.95;;;19.70;58.60;;;;;;5052570;28;20057;-69
2022/04/14 13:03:21;;;;;;;47.60;16.42;;;19.40;59.50;;;;;;5032039;28;20057;-69
2022/04/14 13:05:48;;;;;;;43.90;12.77;;;19.40;58.30;;;;;;5033459;28;20498;-69
2022/04/14 13:08:14;;;;;;;40.92;11.90;;;19.50;53.70;;;;;;5041075;28;20056;-71
2022/04/14 13:10:42;;;;;;;39.53;12.60;;;19.50;53.60;;;;;;5049486;28;20168;-69
2022/04/14 13:13:10;;;;;;;41.05;11.50;;;18.90;57.90;;;;;;5052083;28;20055;-69
2022/04/14 13:15:38;;;;;;;33.80;11.07;;;19.70;58.40;;;;;;5054470;28;20056;-69
2022/04/14 13:18:05;;;;;;;26.17;8.98;;;19.50;53.50;;;;;;5053814;28;20072;-70
2022/04/14 13:20:33;;;;;;;30.35;9.43;;;19.60;59.10;;;;;;5053112;28;20056;-69
2022/04/14 13:23:00;;;;;;;26.42;8.60;;;19.40;57.80;;;;;;5053149;28;20065;-69
2022/04/14 13:25:26;;;;;;;23.23;8.77;;;19.80;58.20;;;;;;5053293;28;20053;-69
2022/04/14 13:27:53;;;;;;;28.95;7.45;;;19.60;53.40;;;;;;5049372;28;20049;-70
2022/04/14 13:30:21;;;;;;;24.05;7.93;;;19.70;58.10;;;;;;5035230;28;20059;-70
2022/04/14 13:32:49;;;;;;;26.08;8.80;;;19.40;57.80;;;;;;5046970;28;20049;-69
2022/04/14 13:35:15;;;;;;;23.77;7.20;;;20.40;58.00;;;;;;5048738;28;20136;-70
2022/04/14 13:37:43;;;;;;;23.77;6.88;;;20.00;57.90;;;;;;5035813;28;20123;-70
2022/04/14 13:40:13;;;;;;;23.13;7.60;;;20.00;57.80;;;;;;5032637;28;20132;-70
2022/04/14 13:42:40;;;;;;;21.27;6.50;;;20.20;58.50;;;;;;5035383;28;20065;-70
2022/04/14 13:45:09;;;;;;;19.85;6.68;;;19.60;59.20;;;;;;5043186;28;20479;-69
2022/04/14 13:47:37;;;;;;;24.52;7.38;;;19.60;57.90;;;;;;5041745;28;20045;-70
2022/04/14 13:50:06;;;;;;;14.43;5.72;;;19.50;57.60;;;;;;5032676;28;20063;-70
2022/04/14 13:52:33;;;;;;;16.23;6.65;;;19.40;57.70;;;;;;5040828;28;20482;-69
2022/04/14 13:55:00;;;;;;;20.30;6.07;;;19.60;53.40;;;;;;5044100;28;20088;-70
2022/04/14 13:57:26;;;;;;;18.75;6.40;;;20.20;58.40;;;;;;5033074;28;20053;-70
2022/04/14 13:59:53;;;;;;;16.15;6.55;;;19.50;59.40;;;;;;5046117;28;20429;-69
2022/04/14 14:02:20;;;;;;;17.33;5.97;;;19.30;57.90;;;;;;5053018;28;20136;-70
2022/04/14 14:04:46;;;;;;;14.88;5.60;;;20.20;58.20;;;;;;5043347;28;20053;-70
2022/04/14 14:07:14;;;;;;;14.95;5.80;;;18.40;58.20;;;;;;5051061;28;20041;-68
2022/04/14 14:09:41;;;;;;;19.45;5.38;;;19.70;59.20;;;;;;5049960;28;20060;-69
2022/04/14 14:12:09;;;;;;;15.20;5.15;;;19.50;53.10;;;;;;5041760;28;20437;-70
2022/04/14 14:14:36;;;;;;;12.88;4.90;;;19.50;57.90;;;;;;5042727;28;20482;-69
2022/04/14 14:17:03;;;;;;;15.50;5.45;;;19.70;58.00;;;;;;5046066;28;20053;-70
2022/04/14 14:19:31;;;;;;;12.77;4.65;;;19.70;58.10;;;;;;5042894;28;20053;-69
2022/04/14 14:21:58;;;;;;;12.00;5.10;;;20.70;60.00;;;;;;5050123;28;20069;-69
2022/04/14 14:24:26;;;;;;;11.75;4.68;;;19.50;53.40;;;;;;5047778;28;20103;-69
2022/04/14 14:26:53;;;;;;;15.43;4.70;;;19.30;58.00;;;;;;5045883;28;20053;-68
2022/04/14 14:29:20;;;;;;;10.52;4.13;;;19.40;57.80;;;;;;5036468;28;20061;-68
2022/04/14 14:31:46;;;;;;;11.65;4.63;;;19.50;57.70;;;;;;5031890;28;20413;-69
2022/04/14 14:34:13;;;;;;;14.32;4.75;;;20.20;58.10;;;;;;5032772;28;20084;-68
2022/04/14 14:36:40;;;;;;;10.60;3.72;;;19.50;57.60;;;;;;5043546;28;20131;-68
2022/04/14 14:39:06;;;;;;;11.57;4.20;;;19.50;53.50;;;;;;5051324;28;20052;-68
2022/04/14 14:41:34;;;;;;;12.27;4.63;;;19.50;53.50;;;;;;5051389;28;20135;-68
2022/04/14 14:44:02;;;;;;;11.15;4.45;;;19.40;57.90;;;;;;5051777;28;20128;-68
2022/04/14 14:46:28;;;;;;;11.90;4.20;;;19.50;57.90;;;;;;5048503;28;20053;-68
2022/04/14 14:48:55;;;;;;;9.23;3.50;;;19.50;53.60;;;;;;5031396;28;20053;-68
2022/04/14 14:51:22;;;;;;;9.07;3.72;;;18.90;58.60;;;;;;5030860;28;20055;-68
2022/04/14 14:53:49;;;;;;;8.10;3.45;;;19.80;58.20;;;;;;5051072;28;20053;-68
2022/04/14 14:56:16;;;;;;;9.38;3.30;;;19.40;58.20;;;;;;5038465;28;20405;-68
2022/04/14 15:01:28;;;;;;;8.55;3.75;;;19.50;53.90;;;;;;5032789;28;20486;-69
2022/04/14 15:03:54;;;;;;;6.97;3.08;;;19.80;58.80;;;;;;5034242;28;20057;-69
2022/04/14 15:06:23;;;;;;;9.50;3.47;;;19.30;58.40;;;;;;5030605;28;20050;-69
2022/04/14 15:08:49;;;;;;;8.90;3.35;;;19.60;58.50;;;;;;5029720;28;20104;-69
2022/04/14 15:11:16;;;;;;;8.48;3.80;;;19.50;60.40;;;;;;5028512;28;20060;-69
2022/04/14 15:13:44;;;;;;;9.02;3.42;;;19.40;58.40;;;;;;5030026;28;20053;-69
2022/04/14 15:16:11;;;;;;;8.60;3.22;;;19.50;58.10;;;;;;5031746;28;20046;-68
2022/04/14 15:18:38;;;;;;;8.82;3.25;;;19.40;54.00;;;;;;5049699;28;20061;-69
2022/04/14 15:21:04;;;;;;;9.10;3.35;;;20.50;59.10;;;;;;5052516;28;20047;-69
2022/04/14 15:23:31;;;;;;;7.13;3.30;;;19.30;58.60;;;;;;5050732;28;20052;-69
2022/04/14 15:25:58;;;;;;;7.85;3.55;;;19.40;54.10;;;;;;5052095;28;20049;-70
2022/04/14 15:28:25;;;;;;;5.82;2.92;;;19.00;58.60;;;;;;5032564;28;20151;-69
2022/04/14 15:30:53;;;;;;;6.20;3.00;;;19.30;58.40;;;;;;5031791;28;20487;-68
2022/04/14 15:33:19;;;;;;;5.85;2.80;;;18.50;59.50;;;;;;5030690;28;20128;-69
2022/04/14 15:35:46;;;;;;;8.43;3.25;;;19.30;54.20;;;;;;5030870;28;20053;-69
2022/04/14 15:38:13;;;;;;;6.25;3.08;;;19.20;58.20;;;;;;5047934;28;20396;-69
2022/04/14 15:40:39;;;;;;;7.50;3.30;;;19.40;59.20;;;;;;5051495;28;20041;-70
2022/04/14 15:43:06;;;;;;;24.15;4.07;;;19.30;58.80;;;;;;5051732;28;20041;-71
2022/04/14 15:45:33;;;;;;;8.68;2.88;;;18.90;58.60;;;;;;5051919;28;20059;-70